Flight Track Log - Related Links

Times and Time Zones

All times are in EDT time to prevent confusion due to time zone crossing. See the N920AC flight status page for this flight to view local times or setup timezone preferences in your user account.

Time Position Orientation Groundspeed Altitude Reporting Facility
EDT Latitude Longitude Course Direction KTS MPH feet Rate Location/Type
Fri 08:36:00 AM 26.1231 -81.5908 96° East  Level Estimated
Fri 08:37:00 AM 26.1182 -81.5600 106° East  Level Estimated
Fri 08:38:00 AM 26.1118 -81.5296 103° East  Level FlightAware Approximate
Fri 08:38:26 AM 26.1514 -81.6128 119° Southeast 78 90 4,300  Level Miami Center
Fri 08:39:00 AM 26.1069 -81.4988 138° Southeast  Level Estimated
Fri 08:39:26 AM 26.1439 -81.5892 109° East 78 90 4,700  Level Miami Center
Fri 08:40:00 AM 26.0933 -81.4714 119° Southeast  Level FlightAware Approximate
Fri 08:40:26 AM 26.1406 -81.5636 98° East 73 84 5,000  Level Miami Center
Fri 08:41:00 AM 26.0797 -81.4441 119° Southeast  Level FlightAware Approximate
Fri 08:41:26 AM 26.1453 -81.5383 78° East 73 84 5,000  Level Miami Center
Fri 08:42:00 AM 26.0662 -81.4167 119° Southeast  Level FlightAware Approximate
Fri 08:42:26 AM 26.1400 -81.5081 101° East 86 99 5,000  Level Miami Center
Fri 08:43:26 AM 26.1389 -81.4825 93° East 86 99 5,000  Level Miami Center
Fri 08:44:26 AM 26.1375 -81.4572 93° East 86 99 5,000  Level Miami Center
Fri 08:45:26 AM 26.1342 -81.4317 98° East 86 99 5,000  Level Miami Center
Fri 08:46:26 AM 26.1308 -81.4014 97° East 86 99 5,000  Level Miami Center
Fri 08:47:26 AM 26.1297 -81.3736 93° East 86 99 5,000  Level Miami Center
Fri 08:48:26 AM 26.1286 -81.3433 92° East 86 99 5,000  Level Miami Center
Fri 08:49:26 AM 26.1253 -81.3156 98° East 86 99 5,000  Level Miami Center
Fri 08:50:26 AM 26.1242 -81.2856 92° East 86 99 5,000  Level Miami Center
Fri 08:51:26 AM 26.1208 -81.2575 98° East 86 99 5,000  Level Miami Center
Fri 08:52:26 AM 26.1175 -81.2297 98° East 86 99 5,000  Level Miami Center
Fri 08:53:26 AM 26.1142 -81.2019 98° East 86 99 5,000 50 Level Miami Center
Fri 08:54:26 AM 26.1150 -81.1717 88° East 86 99 5,100 95 Climbing Miami Center
Fri 08:54:29 AM 26.1106 -81.1739 204° Southwest 89 102 5,100 -100 Level Miami Center
Fri 08:55:26 AM 26.1136 -81.1439 84° East 86 99 5,000 -98 Descending Miami Center
Fri 08:55:30 AM 26.1114 -81.1461 222° Southwest 92 106 5,000 -92 Level Miami Center
Fri 08:56:31 AM 26.1081 -81.1183 98° East 90 104 4,900  Descending Miami Center
Fri 08:57:26 AM 26.1111 -81.0906 83° East 86 99 5,000  Climbing Miami Center
Fri 08:57:33 AM 26.1089 -81.0906 180° South 87 100 4,900 -100 Descending Miami Center
Fri 08:58:26 AM 26.1056 -81.0628 98° East 91 105 4,900 98 Level Miami Center
Fri 08:58:34 AM 26.1014 -81.0625 177° South 93 107 5,000  Climbing Miami Center
Fri 08:59:26 AM 26.1022 -81.0372 88° East 86 99 4,900  Descending Miami Center
Fri 08:59:41 AM 26.1003 -81.0278 103° East 92 106 5,000 100 Climbing Miami Center
Fri 09:00:26 AM 26.1008 -81.0094 88° East 86 99 5,000  Level Miami Center
Fri 09:00:42 AM 26.0969 -81.0000 115° Southeast 90 104 5,000 -300 Level Miami Center
Fri 09:01:26 AM 26.0975 -80.9814 88° East 86 99 4,700 -536 Descending Miami Center
Fri 09:01:38 AM 26.0933 -80.9744 124° Southeast 89 102 4,500 -500 Descending Miami Center
Fri 09:02:26 AM 26.0961 -80.9536 82° East 86 99 4,200 -492 Descending Miami Center
Fri 09:02:39 AM 26.0900 -80.9489 145° Southeast 88 101 4,000 -600 Descending Miami Center
Fri 09:03:26 AM 26.0781 -80.9278 122° Southeast 86 99 3,600 -537 Descending Miami Center
Fri 09:03:46 AM 26.0719 -80.9228 144° Southeast 93 107 3,400 -480 Descending Miami Center
Fri 09:04:41 AM 26.0619 -80.9017 118° Southeast 86 99 3,000 -393 Descending Miami Center
Fri 09:05:48 AM 26.0544 -80.8714 105° East 86 99 2,600 -375 Descending Miami Center
Fri 09:06:49 AM 26.0469 -80.8481 110° East 86 99 2,200 -295 Descending Miami Center
Fri 09:07:50 AM 26.0372 -80.8222 113° Southeast 88 101 2,000 -103 Descending Miami Center
Fri 09:08:46 AM 26.0314 -80.8011 107° East 90 104 2,000 51 Level Miami Center
Fri 09:09:47 AM 26.0175 -80.7708 117° Southeast 91 105 2,100 -45 Climbing Miami Center
Fri 09:11:00 AM 26.0058 -80.7381 112° Southeast 101 116 1,900 -47 Descending Miami Center
Fri 09:11:55 AM 25.9919 -80.7144 123° Southeast 94 108 2,000 52 Climbing Miami Center
Fri 09:12:56 AM 25.9842 -80.6889 109° East 88 101 2,000  Level Miami Center
Fri 09:13:57 AM 25.9744 -80.6631 113° Southeast 93 107 2,000  Level Miami Center
Fri 09:14:58 AM 25.9606 -80.6372 121° Southeast 93 107 2,000 49 Level Miami Center
Fri 09:15:59 AM 25.9508 -80.6114 113° Southeast 95 109 2,100 52 Climbing Miami Center
Fri 09:16:54 AM 25.9389 -80.5881 120° Southeast 98 113 2,100 -55 Level Miami Center
Fri 09:17:49 AM 25.9289 -80.5622 113° Southeast 99 114 2,000 -207 Descending Miami Center
Fri 09:18:50 AM 25.9150 -80.5364 121° Southeast 93 107 1,700 -197 Descending Miami Center
Fri 09:19:51 AM 25.9075 -80.5086 107° East 90 104 1,600 -49 Descending Miami Center
Fri 09:20:52 AM 25.8997 -80.4828 108° East 91 105 1,600 -49 Level Miami Center
Fri 09:21:53 AM 25.8983 -80.4553 93° East 85 98 1,500  Descending Miami Center
Fri 09:23:00 AM 25.8989 -80.4253 89° East 89 102 1,600  Climbing Miami Center
Fri 09:24:00 AM 25.9048 -80.4003 75° East  Level FlightAware Approximate
Fri 09:24:01 AM 25.9017 -80.3975 75° East 87 100 1,500  Level Miami Center
Fri 09:24:56 AM 25.9003 -80.3744 94° East 81 93 1,600 -197 Climbing Miami Center
Fri 09:26:03 AM 25.9050 -80.3467 79° East 83 96 1,100 -516 Descending Miami Center
Fri 09:27:04 AM 25.9078 -80.3214 83° East 86 99 500 -76 Descending Miami Center
Fri 09:30:01 AM 25.9094 -80.2475 89° East 85 98 800 280 Climbing Miami Center
Fri 09:31:21 AM 25.9103 -80.2175 88° East 75 86 1,700 675 Climbing Miami Center

Login

Don't have an account? Register now (free) for customized features, flight alerts, and more!